Time,TemperatureF,DewpointF,PressureIn,WindDirection,WindDirectionDegrees,WindSpeedMPH,WindSpeedGustMPH,Humidity,HourlyPrecipIn,Conditions,Clouds,dailyrainin,SoftwareType,DateUTC
2013-03-30 00:02:00,55.0,45.0,-100.00,West,276,2.0,3.0,70,-99.99,,,-99.99,,2013-03-30 07:02:00,
2013-03-30 00:12:00,55.0,46.0,-100.00,NW,304,3.0,3.0,72,-99.99,,,-99.99,,2013-03-30 07:12:00,
2013-03-30 00:22:00,55.0,45.0,-100.00,NW,308,2.0,3.0,70,-99.99,,,-99.99,,2013-03-30 07:22:00,
2013-03-30 00:32:00,55.0,45.0,-100.00,West,263,3.0,5.0,69,-99.99,,,-99.99,,2013-03-30 07:32:00,
2013-03-30 00:42:00,55.0,45.0,-100.00,West,263,3.0,5.0,69,-99.99,,,-99.99,,2013-03-30 07:42:00,
2013-03-30 00:52:00,56.0,42.0,-100.00,WSW,241,5.0,5.0,59,-99.99,,,-99.99,,2013-03-30 07:52:00,
2013-03-30 01:01:00,59.0,35.0,-100.00,WSW,255,5.0,7.0,41,-99.99,,,-99.99,,2013-03-30 08:01:00,
2013-03-30 01:12:00,59.0,33.0,-100.00,WSW,247,7.0,8.0,37,-99.99,,,-99.99,,2013-03-30 08:12:00,
2013-03-30 01:21:00,59.0,30.0,-100.00,WSW,245,9.0,10.0,33,-99.99,,,-99.99,,2013-03-30 08:21:00,
2013-03-30 01:42:00,59.0,34.0,-100.00,WSW,245,10.0,13.0,39,-99.99,,,-99.99,,2013-03-30 08:42:00,
2013-03-30 01:52:00,58.0,35.0,-100.00,WSW,250,10.0,12.0,42,-99.99,,,-99.99,,2013-03-30 08:52:00,
2013-03-30 02:02:00,59.0,36.0,-100.00,WSW,249,10.0,13.0,42,-99.99,,,-99.99,,2013-03-30 09:02:00,
2013-03-30 02:12:00,58.0,37.0,-100.00,WSW,244,10.0,12.0,46,-99.99,,,-99.99,,2013-03-30 09:12:00,
2013-03-30 02:22:00,58.0,37.0,-100.00,WSW,249,8.0,11.0,45,-99.99,,,-99.99,,2013-03-30 09:22:00,
2013-03-30 02:33:00,58.0,37.0,-100.00,SW,236,8.0,11.0,46,-99.99,,,-99.99,,2013-03-30 09:33:00,
2013-03-30 02:42:00,58.0,37.0,-100.00,SW,236,8.0,11.0,46,-99.99,,,-99.99,,2013-03-30 09:42:00,
2013-03-30 02:52:00,58.0,38.0,-100.00,SW,231,9.0,13.0,47,-99.99,,,-99.99,,2013-03-30 09:52:00,
2013-03-30 03:02:00,57.0,36.0,-100.00,SW,227,9.0,13.0,46,-99.99,,,-99.99,,2013-03-30 10:02:00,
2013-03-30 03:12:00,57.0,37.0,-100.00,WSW,237,10.0,13.0,47,-99.99,,,-99.99,,2013-03-30 10:12:00,
2013-03-30 03:22:00,57.0,36.0,-100.00,WSW,242,11.0,15.0,45,-99.99,,,-99.99,,2013-03-30 10:22:00,
2013-03-30 03:32:00,57.0,35.0,-100.00,WSW,253,10.0,14.0,44,-99.99,,,-99.99,,2013-03-30 10:32:00,
2013-03-30 03:42:00,57.0,37.0,-100.00,West,261,10.0,13.0,47,-99.99,,,-99.99,,2013-03-30 10:42:00,
2013-03-30 03:52:00,56.0,39.0,-100.00,WSW,257,9.0,13.0,52,-99.99,,,-99.99,,2013-03-30 10:52:00,
2013-03-30 04:02:00,55.0,39.0,-100.00,WSW,256,11.0,15.0,55,-99.99,,,-99.99,,2013-03-30 11:02:00,
2013-03-30 04:12:00,56.0,41.0,-100.00,WSW,258,13.0,17.0,58,-99.99,,,-99.99,,2013-03-30 11:12:00,
2013-03-30 04:22:00,55.0,41.0,-100.00,WSW,256,13.0,18.0,60,-99.99,,,-99.99,,2013-03-30 11:22:00,
2013-03-30 04:32:00,55.0,41.0,-100.00,West,262,11.0,14.0,60,-99.99,,,-99.99,,2013-03-30 11:32:00,
2013-03-30 04:42:00,55.0,42.0,-100.00,West,270,8.0,12.0,61,-99.99,,,-99.99,,2013-03-30 11:42:00,
2013-03-30 04:52:00,54.0,41.0,-100.00,WNW,283,7.0,15.0,61,-99.99,,,-99.99,,2013-03-30 11:52:00,
2013-03-30 05:02:00,54.0,40.0,-100.00,North,355,3.0,7.0,59,-99.99,,,-99.99,,2013-03-30 12:02:00,
2013-03-30 05:12:00,55.0,40.0,-100.00,SW,220,9.0,15.0,56,-99.99,,,-99.99,,2013-03-30 12:12:00,
2013-03-30 05:22:00,55.0,38.0,-100.00,WSW,243,7.0,10.0,53,-99.99,,,-99.99,,2013-03-30 12:22:00,
2013-03-30 05:32:00,54.0,40.0,-100.00,SW,229,9.0,11.0,59,-99.99,,,-99.99,,2013-03-30 12:32:00,
2013-03-30 05:42:00,54.0,40.0,-100.00,SSW,209,9.0,11.0,58,-99.99,,,-99.99,,2013-03-30 12:42:00,
2013-03-30 05:52:00,55.0,40.0,-100.00,SW,227,9.0,12.0,57,-99.99,,,-99.99,,2013-03-30 12:52:00,
2013-03-30 06:02:00,54.0,39.0,-100.00,SW,231,5.0,8.0,57,-99.99,,,-99.99,,2013-03-30 13:02:00,
2013-03-30 06:12:00,55.0,39.0,-100.00,South,187,3.0,4.0,54,-99.99,,,-99.99,,2013-03-30 13:12:00,
2013-03-30 06:21:00,55.0,39.0,-100.00,SW,227,2.0,5.0,54,-99.99,,,-99.99,,2013-03-30 13:21:00,
2013-03-30 06:32:00,54.0,39.0,-100.00,SW,221,6.0,8.0,56,-99.99,,,-99.99,,2013-03-30 13:32:00,
2013-03-30 06:42:00,54.0,39.0,-100.00,SW,219,8.0,9.0,57,-99.99,,,-99.99,,2013-03-30 13:42:00,
2013-03-30 06:52:00,53.0,37.0,-100.00,SW,219,8.0,10.0,55,-99.99,,,-99.99,,2013-03-30 13:52:00,
2013-03-30 07:02:00,53.0,37.0,-100.00,WSW,241,8.0,9.0,54,-99.99,,,-99.99,,2013-03-30 14:02:00,
2013-03-30 07:11:00,54.0,36.0,-100.00,West,271,6.0,9.0,50,-99.99,,,-99.99,,2013-03-30 14:11:00,
2013-03-30 07:22:00,53.0,36.0,-100.00,WSW,252,6.0,9.0,53,-99.99,,,-99.99,,2013-03-30 14:22:00,
2013-03-30 07:32:00,53.0,38.0,-100.00,West,276,9.0,15.0,57,-99.99,,,-99.99,,2013-03-30 14:32:00,
2013-03-30 07:42:00,52.0,39.0,-100.00,West,273,9.0,12.0,60,-99.99,,,-99.99,,2013-03-30 14:42:00,
2013-03-30 07:52:00,53.0,40.0,-100.00,West,264,10.0,15.0,61,-99.99,,,-99.99,,2013-03-30 14:52:00,
2013-03-30 08:02:00,53.0,40.0,-100.00,West,259,12.0,15.0,62,-99.99,,,-99.99,,2013-03-30 15:02:00,
2013-03-30 08:12:00,53.0,41.0,-100.00,West,260,11.0,15.0,63,-99.99,,,-99.99,,2013-03-30 15:12:00,
2013-03-30 08:22:00,53.0,41.0,-100.00,WSW,256,11.0,16.0,64,-99.99,,,-99.99,,2013-03-30 15:22:00,
2013-03-30 08:33:00,54.0,42.0,-100.00,West,261,10.0,13.0,63,-99.99,,,-99.99,,2013-03-30 15:33:00,
2013-03-30 08:42:00,54.0,42.0,-100.00,West,267,10.0,16.0,63,-99.99,,,-99.99,,2013-03-30 15:42:00,
2013-03-30 08:52:00,54.0,41.0,-100.00,West,262,10.0,14.0,61,-99.99,,,-99.99,,2013-03-30 15:52:00,
2013-03-30 09:03:00,55.0,43.0,-100.00,WNW,291,5.0,10.0,63,-99.99,,,-99.99,,2013-03-30 16:03:00,
2013-03-30 09:12:00,55.0,42.0,-100.00,West,272,6.0,15.0,62,-99.99,,,-99.99,,2013-03-30 16:12:00,
2013-03-30 09:22:00,55.0,43.0,-100.00,WSW,249,10.0,16.0,63,-99.99,,,-99.99,,2013-03-30 16:22:00,
2013-03-30 09:32:00,55.0,42.0,-100.00,WSW,257,13.0,19.0,62,-99.99,,,-99.99,,2013-03-30 16:32:00,
2013-03-30 09:42:00,55.0,43.0,-100.00,WSW,258,15.0,21.0,64,-99.99,,,-99.99,,2013-03-30 16:42:00,
2013-03-30 09:52:00,55.0,44.0,-100.00,WSW,258,15.0,23.0,66,-99.99,,,-99.99,,2013-03-30 16:52:00,
2013-03-30 10:02:00,56.0,45.0,-100.00,WSW,256,14.0,22.0,67,-99.99,,,-99.99,,2013-03-30 17:02:00,
2013-03-30 10:12:00,58.0,46.0,-100.00,WSW,258,13.0,19.0,64,-99.99,,,-99.99,,2013-03-30 17:12:00,
2013-03-30 10:22:00,59.0,45.0,-100.00,WSW,258,13.0,19.0,59,-99.99,,,-99.99,,2013-03-30 17:22:00,
2013-03-30 10:32:00,59.0,43.0,-100.00,WSW,258,14.0,19.0,56,-99.99,,,-99.99,,2013-03-30 17:32:00,
2013-03-30 10:42:00,60.0,42.0,-100.00,West,265,14.0,20.0,51,-99.99,,,-99.99,,2013-03-30 17:42:00,
2013-03-30 10:52:00,62.0,42.0,-100.00,West,261,10.0,18.0,48,-99.99,,,-99.99,,2013-03-30 17:52:00,
2013-03-30 11:02:00,62.0,42.0,-100.00,West,262,14.0,21.0,48,-99.99,,,-99.99,,2013-03-30 18:02:00,
2013-03-30 11:12:00,62.0,41.0,-100.00,West,265,14.0,19.0,46,-99.99,,,-99.99,,2013-03-30 18:12:00,
2013-03-30 11:22:00,62.0,42.0,-100.00,West,261,12.0,18.0,48,-99.99,,,-99.99,,2013-03-30 18:22:00,
2013-03-30 11:32:00,63.0,43.0,-100.00,WSW,258,13.0,21.0,48,-99.99,,,-99.99,,2013-03-30 18:32:00,
2013-03-30 11:42:00,63.0,42.0,-100.00,West,272,13.0,20.0,47,-99.99,,,-99.99,,2013-03-30 18:42:00,
2013-03-30 11:52:00,63.0,41.0,-100.00,West,267,13.0,19.0,45,-99.99,,,-99.99,,2013-03-30 18:52:00,
2013-03-30 12:02:00,64.0,41.0,-100.00,West,265,14.0,21.0,43,-99.99,,,-99.99,,2013-03-30 19:02:00,
2013-03-30 12:12:00,65.0,40.0,-100.00,West,271,15.0,23.0,40,-99.99,,,-99.99,,2013-03-30 19:12:00,
2013-03-30 12:22:00,65.0,39.0,-100.00,West,261,14.0,21.0,39,-99.99,,,-99.99,,2013-03-30 19:22:00,
2013-03-30 12:32:00,66.0,38.0,-100.00,WSW,252,15.0,23.0,35,-99.99,,,-99.99,,2013-03-30 19:32:00,
2013-03-30 12:42:00,66.0,38.0,-100.00,WSW,252,15.0,23.0,35,-99.99,,,-99.99,,2013-03-30 19:42:00,
2013-03-30 12:52:00,67.0,35.0,-100.00,West,261,15.0,21.0,30,-99.99,,,-99.99,,2013-03-30 19:52:00,
2013-03-30 13:02:00,66.0,34.0,-100.00,West,260,16.0,25.0,30,-99.99,,,-99.99,,2013-03-30 20:02:00,
2013-03-30 13:12:00,67.0,35.0,-100.00,West,261,15.0,26.0,31,-99.99,,,-99.99,,2013-03-30 20:12:00,
2013-03-30 13:21:00,67.0,37.0,-100.00,WSW,248,16.0,23.0,33,-99.99,,,-99.99,,2013-03-30 20:21:00,
2013-03-30 13:32:00,67.0,39.0,-100.00,WSW,254,17.0,26.0,36,-99.99,,,-99.99,,2013-03-30 20:32:00,
2013-03-30 13:42:00,67.0,41.0,-100.00,WSW,252,15.0,23.0,38,-99.99,,,-99.99,,2013-03-30 20:42:00,
2013-03-30 13:52:00,67.0,41.0,-100.00,WSW,256,16.0,23.0,38,-99.99,,,-99.99,,2013-03-30 20:52:00,
2013-03-30 14:02:00,67.0,40.0,-100.00,West,259,14.0,24.0,37,-99.99,,,-99.99,,2013-03-30 21:02:00,
2013-03-30 14:12:00,67.0,39.0,-100.00,West,260,16.0,25.0,36,-99.99,,,-99.99,,2013-03-30 21:12:00,
2013-03-30 14:22:00,67.0,39.0,-100.00,WSW,252,16.0,26.0,36,-99.99,,,-99.99,,2013-03-30 21:22:00,
2013-03-30 14:32:00,68.0,39.0,-100.00,WSW,253,16.0,25.0,34,-99.99,,,-99.99,,2013-03-30 21:32:00,
2013-03-30 14:43:00,67.0,37.0,-100.00,WSW,255,17.0,26.0,33,-99.99,,,-99.99,,2013-03-30 21:43:00,
2013-03-30 14:52:00,67.0,36.0,-100.00,WSW,249,18.0,30.0,32,-99.99,,,-99.99,,2013-03-30 21:52:00,
2013-03-30 15:02:00,68.0,37.0,-100.00,West,259,17.0,23.0,32,-99.99,,,-99.99,,2013-03-30 22:02:00,
2013-03-30 15:12:00,68.0,38.0,-100.00,West,259,16.0,23.0,33,-99.99,,,-99.99,,2013-03-30 22:12:00,
2013-03-30 15:23:00,68.0,37.0,-100.00,WSW,256,17.0,24.0,32,-99.99,,,-99.99,,2013-03-30 22:23:00,
2013-03-30 15:32:00,68.0,38.0,-100.00,WSW,252,17.0,26.0,33,-99.99,,,-99.99,,2013-03-30 22:32:00,
2013-03-30 15:43:00,68.0,38.0,-100.00,WSW,256,18.0,29.0,33,-99.99,,,-99.99,,2013-03-30 22:43:00,
2013-03-30 15:53:00,68.0,39.0,-100.00,WSW,258,17.0,25.0,34,-99.99,,,-99.99,,2013-03-30 22:53:00,
2013-03-30 16:02:00,68.0,39.0,-100.00,West,259,16.0,26.0,34,-99.99,,,-99.99,,2013-03-30 23:02:00,
2013-03-30 16:12:00,68.0,39.0,-100.00,West,269,19.0,27.0,34,-99.99,,,-99.99,,2013-03-30 23:12:00,
2013-03-30 16:22:00,68.0,38.0,-100.00,West,275,19.0,27.0,33,-99.99,,,-99.99,,2013-03-30 23:22:00,
2013-03-30 16:32:00,67.0,39.0,-100.00,West,270,18.0,25.0,36,-99.99,,,-99.99,,2013-03-30 23:32:00,
2013-03-30 16:42:00,68.0,41.0,-100.00,West,266,17.0,25.0,38,-99.99,,,-99.99,,2013-03-30 23:42:00,
2013-03-30 16:52:00,67.0,43.0,-100.00,West,266,17.0,27.0,41,-99.99,,,-99.99,,2013-03-30 23:52:00,
2013-03-30 17:02:00,67.0,43.0,-100.00,West,264,17.0,23.0,42,-99.99,,,-99.99,,2013-03-31 00:02:00,
2013-03-30 17:11:00,66.0,43.0,-100.00,West,262,16.0,23.0,44,-99.99,,,-99.99,,2013-03-31 00:11:00,
2013-03-30 17:22:00,67.0,44.0,-100.00,WSW,258,17.0,26.0,44,-99.99,,,-99.99,,2013-03-31 00:22:00,
2013-03-30 17:32:00,66.0,43.0,-100.00,WSW,256,18.0,24.0,44,-99.99,,,-99.99,,2013-03-31 00:32:00,
2013-03-30 17:42:00,66.0,43.0,-100.00,WSW,251,19.0,27.0,43,-99.99,,,-99.99,,2013-03-31 00:42:00,
2013-03-30 17:52:00,65.0,43.0,-100.00,WSW,252,18.0,27.0,45,-99.99,,,-99.99,,2013-03-31 00:52:00,
2013-03-30 18:02:00,65.0,43.0,-100.00,WSW,258,18.0,24.0,45,-99.99,,,-99.99,,2013-03-31 01:02:00,
2013-03-30 18:12:00,65.0,44.0,-100.00,WSW,258,15.0,23.0,46,-99.99,,,-99.99,,2013-03-31 01:12:00,
2013-03-30 18:22:00,65.0,44.0,-100.00,WSW,258,15.0,22.0,46,-99.99,,,-99.99,,2013-03-31 01:22:00,
2013-03-30 18:32:00,64.0,43.0,-100.00,WSW,253,16.0,24.0,46,-99.99,,,-99.99,,2013-03-31 01:32:00,
2013-03-30 18:42:00,64.0,43.0,-100.00,WSW,253,16.0,23.0,47,-99.99,,,-99.99,,2013-03-31 01:42:00,
2013-03-30 18:52:00,64.0,43.0,-100.00,WSW,253,16.0,23.0,47,-99.99,,,-99.99,,2013-03-31 01:52:00,
2013-03-30 19:02:00,63.0,44.0,-100.00,WSW,254,16.0,23.0,50,-99.99,,,-99.99,,2013-03-31 02:02:00,
2013-03-30 19:12:00,62.0,45.0,-100.00,WSW,255,15.0,23.0,54,-99.99,,,-99.99,,2013-03-31 02:12:00,
2013-03-30 19:22:00,61.0,46.0,-100.00,WSW,254,16.0,23.0,57,-99.99,,,-99.99,,2013-03-31 02:22:00,
2013-03-30 19:32:00,60.0,46.0,-100.00,WSW,252,16.0,22.0,60,-99.99,,,-99.99,,2013-03-31 02:32:00,
2013-03-30 19:42:00,59.0,46.0,-100.00,WSW,250,16.0,22.0,63,-99.99,,,-99.99,,2013-03-31 02:42:00,
2013-03-30 19:52:00,58.0,46.0,-100.00,WSW,250,17.0,23.0,65,-99.99,,,-99.99,,2013-03-31 02:52:00,
2013-03-30 20:02:00,57.0,46.0,-100.00,WSW,252,16.0,23.0,67,-99.99,,,-99.99,,2013-03-31 03:02:00,
2013-03-30 20:12:00,57.0,47.0,-100.00,WSW,253,15.0,22.0,69,-99.99,,,-99.99,,2013-03-31 03:12:00,
2013-03-30 20:22:00,56.0,46.0,-100.00,WSW,252,14.0,20.0,70,-99.99,,,-99.99,,2013-03-31 03:22:00,
2013-03-30 20:32:00,55.0,46.0,-100.00,WSW,255,13.0,21.0,72,-99.99,,,-99.99,,2013-03-31 03:32:00,
2013-03-30 20:43:00,54.0,46.0,-100.00,WSW,254,13.0,18.0,74,-99.99,,,-99.99,,2013-03-31 03:43:00,
2013-03-30 20:53:00,54.0,47.0,-100.00,WSW,255,12.0,18.0,77,-99.99,,,-99.99,,2013-03-31 03:53:00,
2013-03-30 21:02:00,54.0,-99.9,-100.00,WSW,255,12.0,18.0,77,-99.99,,,-99.99,,2013-03-31 04:02:00,
2013-03-30 21:12:00,53.0,47.0,-100.00,WSW,256,15.0,20.0,79,-99.99,,,-99.99,,2013-03-31 04:12:00,
2013-03-30 21:22:00,52.0,46.0,-100.00,WSW,254,16.0,21.0,80,-99.99,,,-99.99,,2013-03-31 04:22:00,
2013-03-30 21:32:00,52.0,46.0,-100.00,WSW,255,16.0,23.0,80,-99.99,,,-99.99,,2013-03-31 04:32:00,
2013-03-30 21:42:00,52.0,46.0,-100.00,WSW,254,16.0,23.0,81,-99.99,,,-99.99,,2013-03-31 04:42:00,
2013-03-30 21:52:00,52.0,46.0,-100.00,WSW,252,17.0,25.0,80,-99.99,,,-99.99,,2013-03-31 04:52:00,
2013-03-30 22:02:00,53.0,47.0,-100.00,WSW,258,15.0,20.0,79,-99.99,,,-99.99,,2013-03-31 05:02:00,
2013-03-30 22:12:00,52.0,46.0,-100.00,West,260,14.0,19.0,80,-99.99,,,-99.99,,2013-03-31 05:12:00,
2013-03-30 22:22:00,52.0,47.0,-100.00,West,261,12.0,16.0,82,-99.99,,,-99.99,,2013-03-31 05:22:00,
2013-03-30 22:32:00,52.0,46.0,-100.00,WSW,258,9.0,13.0,81,-99.99,,,-99.99,,2013-03-31 05:32:00,
2013-03-30 22:42:00,52.0,46.0,-100.00,WSW,255,10.0,15.0,81,-99.99,,,-99.99,,2013-03-31 05:42:00,
2013-03-30 22:52:00,52.0,47.0,-100.00,WSW,258,11.0,16.0,82,-99.99,,,-99.99,,2013-03-31 05:52:00,
2013-03-30 23:01:00,52.0,47.0,-100.00,West,259,10.0,14.0,82,-99.99,,,-99.99,,2013-03-31 06:01:00,
2013-03-30 23:11:00,51.0,46.0,-100.00,WSW,256,11.0,16.0,84,-99.99,,,-99.99,,2013-03-31 06:11:00,
2013-03-30 23:21:00,51.0,47.0,-100.00,WSW,256,11.0,15.0,86,-99.99,,,-99.99,,2013-03-31 06:21:00,
2013-03-30 23:32:00,50.0,46.0,-100.00,WSW,256,12.0,16.0,86,-99.99,,,-99.99,,2013-03-31 06:32:00,
2013-03-30 23:42:00,50.0,46.0,-100.00,WSW,255,13.0,21.0,87,-99.99,,,-99.99,,2013-03-31 06:42:00,
2013-03-30 23:52:00,50.0,46.0,-100.00,WSW,254,13.0,19.0,87,-99.99,,,-99.99,,2013-03-31 06:52:00,